createdAt,value
2023-04-12T00:02:04.777Z,9.20
2023-04-12T00:04:34.510Z,9.10
2023-04-12T00:07:02.839Z,9.10
2023-04-12T00:09:30.824Z,9.10
2023-04-12T00:11:59.628Z,9.10
2023-04-12T00:14:27.142Z,9.10
2023-04-12T00:16:54.091Z,9.20
2023-04-12T00:19:21.233Z,9.20
2023-04-12T00:21:48.141Z,9.20
2023-04-12T00:24:15.082Z,9.10
2023-04-12T00:26:42.016Z,9.10
2023-04-12T00:29:08.993Z,9.20
2023-04-12T00:31:35.948Z,9.20
2023-04-12T00:34:03.063Z,9.10
2023-04-12T00:36:30.039Z,9.10
2023-04-12T00:38:57.020Z,9.20
2023-04-12T00:41:24.543Z,9.20
2023-04-12T00:43:51.504Z,9.10
2023-04-12T00:46:20.830Z,9.10
2023-04-12T00:48:48.411Z,9.10
2023-04-12T00:51:18.156Z,9.20
2023-04-12T00:53:45.931Z,9.20
2023-04-12T00:56:13.615Z,9.20
2023-04-12T00:58:40.563Z,9.20
2023-04-12T01:01:07.578Z,9.20
2023-04-12T01:03:35.095Z,9.30
2023-04-12T01:06:32.658Z,9.30
2023-04-12T01:09:38.820Z,9.30
2023-04-12T01:12:43.747Z,9.30
2023-04-12T01:15:15.115Z,9.30
2023-04-12T01:18:17.394Z,9.30
2023-04-12T01:21:11.342Z,9.30
2023-04-12T01:24:13.731Z,9.30
2023-04-12T01:26:51.989Z,9.40
2023-04-12T01:29:22.010Z,9.40
2023-04-12T01:32:02.043Z,9.40
2023-04-12T01:34:31.847Z,9.40
2023-04-12T01:37:02.446Z,9.50
2023-04-12T01:39:34.119Z,9.40
2023-04-12T01:42:01.137Z,9.40
2023-04-12T01:44:28.239Z,9.40
2023-04-12T01:46:55.298Z,9.40
2023-04-12T01:49:28.858Z,9.40
2023-04-12T01:52:02.756Z,9.40
2023-04-12T01:54:34.506Z,9.40
2023-04-12T01:57:04.074Z,9.40
2023-04-12T01:59:43.853Z,9.40
2023-04-12T02:02:13.219Z,9.40
2023-04-12T02:04:42.445Z,9.40
2023-04-12T02:07:09.731Z,9.40
2023-04-12T02:09:40.121Z,9.50
2023-04-12T02:12:09.986Z,9.50
2023-04-12T02:14:37.014Z,9.50
2023-04-12T02:17:04.691Z,9.50
2023-04-12T02:19:32.951Z,9.50
2023-04-12T02:21:59.999Z,9.60
2023-04-12T02:24:27.427Z,9.50
2023-04-12T02:26:55.355Z,9.60
2023-04-12T02:29:22.347Z,9.60
2023-04-12T02:31:49.282Z,9.60
2023-04-12T02:34:18.209Z,9.60
2023-04-12T02:36:49.467Z,9.60
2023-04-12T02:39:22.231Z,9.60
2023-04-12T02:41:49.517Z,9.60
2023-04-12T02:44:16.501Z,9.60
2023-04-12T02:46:43.448Z,9.60
2023-04-12T02:49:10.483Z,9.60
2023-04-12T02:51:38.492Z,9.60
2023-04-12T02:54:06.065Z,9.60
2023-04-12T02:56:36.154Z,9.60
2023-04-12T02:59:03.076Z,9.60
2023-04-12T03:01:31.057Z,9.60
2023-04-12T03:03:58.356Z,9.60
2023-04-12T03:06:25.637Z,9.60
2023-04-12T03:08:52.606Z,9.60
2023-04-12T03:11:19.659Z,9.70
2023-04-12T03:13:46.543Z,9.70
2023-04-12T03:16:30.128Z,9.70
2023-04-12T03:18:57.682Z,9.70
2023-04-12T03:21:24.741Z,9.70
2023-04-12T03:23:52.898Z,9.70
2023-04-12T03:26:20.609Z,9.70
2023-04-12T03:28:48.334Z,9.70
2023-04-12T03:31:20.531Z,9.70
2023-04-12T03:33:47.729Z,9.70
2023-04-12T03:36:14.739Z,9.70
2023-04-12T03:38:41.848Z,9.80
2023-04-12T03:41:08.752Z,9.80
2023-04-12T03:43:37.365Z,9.80
2023-04-12T03:46:05.744Z,9.80
2023-04-12T03:48:32.861Z,9.80
2023-04-12T03:51:00.014Z,9.80
2023-04-12T03:53:27.703Z,9.80
2023-04-12T03:55:54.675Z,9.80
2023-04-12T03:58:21.568Z,9.80
2023-04-12T04:00:49.183Z,9.80
2023-04-12T04:03:16.618Z,9.80
2023-04-12T04:05:43.727Z,9.80
2023-04-12T04:08:10.759Z,9.90
2023-04-12T04:10:37.726Z,9.80
2023-04-12T04:13:04.683Z,9.80
2023-04-12T04:15:32.977Z,9.70
2023-04-12T04:17:59.947Z,9.80
2023-04-12T04:20:27.827Z,9.70
2023-04-12T04:22:55.062Z,9.70
2023-04-12T04:25:23.244Z,9.70
2023-04-12T04:27:51.098Z,9.70
2023-04-12T04:30:19.317Z,9.60
2023-04-12T04:32:46.367Z,9.60
2023-04-12T04:35:16.758Z,9.60
2023-04-12T04:37:43.894Z,9.60
2023-04-12T04:40:14.745Z,9.60
2023-04-12T04:42:43.021Z,9.50
2023-04-12T04:45:14.147Z,9.50
2023-04-12T04:47:41.312Z,9.50
2023-04-12T04:50:08.821Z,9.50
2023-04-12T04:52:37.765Z,9.40
2023-04-12T04:55:07.354Z,9.30
2023-04-12T04:57:34.991Z,9.30
2023-04-12T05:00:10.848Z,9.30
2023-04-12T05:02:40.019Z,9.20
2023-04-12T05:05:12.537Z,9.20
2023-04-12T05:07:39.618Z,9.20
2023-04-12T05:10:07.507Z,9.10
2023-04-12T05:12:34.517Z,9.10
2023-04-12T05:15:11.132Z,9.10
2023-04-12T05:17:39.295Z,9.10
2023-04-12T05:20:07.945Z,9.10
2023-04-12T05:22:35.643Z,9.00
2023-04-12T05:25:04.203Z,9.00
2023-04-12T05:27:31.401Z,9.00
2023-04-12T05:29:58.428Z,9.00
2023-04-12T05:32:28.533Z,9.00
2023-04-12T05:34:56.100Z,8.90
2023-04-12T05:37:23.077Z,8.90
2023-04-12T05:39:50.431Z,8.90
2023-04-12T05:42:17.335Z,8.90
2023-04-12T05:44:46.158Z,8.90
2023-04-12T05:47:14.905Z,8.80
2023-04-12T05:49:41.903Z,8.80
2023-04-12T05:52:08.929Z,8.80
2023-04-12T05:54:36.555Z,8.80
2023-04-12T05:57:03.830Z,8.90
2023-04-12T05:59:30.985Z,8.80
2023-04-12T06:01:58.136Z,8.90
2023-04-12T06:04:42.169Z,8.90
2023-04-12T06:07:16.550Z,8.90
2023-04-12T06:09:44.581Z,9.00
2023-04-12T06:12:11.541Z,9.00
2023-04-12T06:14:38.548Z,9.00
2023-04-12T06:17:05.799Z,9.00
2023-04-12T06:19:33.120Z,8.90
2023-04-12T06:22:00.022Z,9.00
2023-04-12T06:24:27.046Z,9.10
2023-04-12T06:26:53.996Z,9.20
2023-04-12T06:29:20.988Z,9.30
2023-04-12T06:31:48.406Z,9.40
2023-04-12T06:34:16.042Z,9.60
2023-04-12T06:36:43.635Z,9.70
2023-04-12T06:39:12.137Z,9.70
2023-04-12T06:41:39.203Z,9.60
2023-04-12T06:44:06.282Z,9.50
2023-04-12T06:46:33.347Z,9.50
2023-04-12T06:49:00.537Z,9.50
2023-04-12T06:51:28.266Z,9.50
2023-04-12T06:53:56.249Z,9.60
2023-04-12T06:56:23.510Z,9.70
2023-04-12T06:58:50.735Z,9.70
2023-04-12T07:01:17.856Z,9.80
2023-04-12T07:03:45.385Z,9.90
2023-04-12T07:06:24.227Z,10.10
2023-04-12T07:08:52.735Z,10.20
2023-04-12T07:11:22.533Z,10.20
2023-04-12T07:13:51.132Z,10.20
2023-04-12T07:16:18.668Z,10.10
2023-04-12T07:18:45.882Z,9.90
2023-04-12T07:21:17.524Z,9.80
2023-04-12T07:23:46.647Z,9.80
2023-04-12T07:26:13.629Z,9.80
2023-04-12T07:28:40.736Z,9.80
2023-04-12T07:31:08.060Z,9.90
2023-04-12T07:33:36.598Z,9.90
2023-04-12T07:36:04.954Z,10.10
2023-04-12T07:38:32.007Z,10.10
2023-04-12T07:40:58.970Z,10.10
2023-04-12T07:43:26.068Z,10.00
2023-04-12T07:45:56.335Z,10.00
2023-04-12T07:48:23.478Z,10.00
2023-04-12T07:50:50.724Z,10.20
2023-04-12T07:53:22.989Z,10.90
2023-04-12T07:55:50.344Z,11.10
2023-04-12T07:58:18.831Z,11.10
2023-04-12T08:00:47.208Z,11.00
2023-04-12T08:03:16.774Z,11.10
2023-04-12T08:05:44.781Z,11.20
2023-04-12T08:08:12.136Z,11.30
2023-04-12T08:10:40.411Z,11.40
2023-04-12T08:13:07.751Z,11.10
2023-04-12T08:15:34.834Z,10.90
2023-04-12T08:18:02.690Z,10.70
2023-04-12T08:20:30.302Z,10.50
2023-04-12T08:22:57.316Z,10.40
2023-04-12T08:25:24.520Z,10.40
2023-04-12T08:27:52.063Z,10.50
2023-04-12T08:30:19.711Z,10.80
2023-04-12T08:32:46.871Z,11.40
2023-04-12T08:35:15.347Z,11.80
2023-04-12T08:37:42.376Z,11.90
2023-04-12T08:40:09.845Z,11.80
2023-04-12T08:42:38.105Z,11.80
2023-04-12T08:45:09.681Z,11.70
2023-04-12T08:47:41.092Z,11.50
2023-04-12T08:50:10.804Z,11.30
2023-04-12T08:52:38.752Z,11.30
2023-04-12T08:55:11.235Z,11.50
2023-04-12T08:57:41.608Z,11.60
2023-04-12T09:00:10.672Z,11.50
2023-04-12T09:02:39.131Z,11.30
2023-04-12T09:05:07.494Z,11.10
2023-04-12T09:07:34.706Z,11.20
2023-04-12T09:10:02.182Z,11.30
2023-04-12T09:12:29.285Z,11.40
2023-04-12T09:15:12.873Z,11.50
2023-04-12T09:17:41.866Z,11.40
2023-04-12T09:20:19.269Z,11.30
2023-04-12T09:22:46.691Z,11.40
2023-04-12T09:25:15.663Z,11.50
2023-04-12T09:27:51.514Z,11.60
2023-04-12T09:30:20.808Z,12.20
2023-04-12T09:32:51.066Z,12.60
2023-04-12T09:35:18.788Z,12.80
2023-04-12T09:37:45.832Z,12.80
2023-04-12T09:40:13.184Z,13.00
2023-04-12T09:42:54.033Z,13.20
2023-04-12T09:45:28.052Z,13.10
2023-04-12T09:47:55.861Z,13.00
2023-04-12T09:50:26.092Z,12.90
2023-04-12T09:52:54.851Z,12.80
2023-04-12T09:55:24.124Z,12.50
2023-04-12T09:57:52.841Z,12.20
2023-04-12T10:00:23.073Z,12.00
2023-04-12T10:02:52.864Z,12.00
2023-04-12T10:05:28.489Z,12.00
2023-04-12T10:07:56.876Z,11.90
2023-04-12T10:10:24.609Z,11.80
2023-04-12T10:12:51.777Z,11.90
2023-04-12T10:15:21.601Z,11.80
2023-04-12T10:17:55.521Z,11.80
2023-04-12T10:20:26.148Z,11.60
2023-04-12T10:22:56.439Z,11.50
2023-04-12T10:25:30.035Z,11.50
2023-04-12T10:27:57.199Z,11.50
2023-04-12T10:30:30.655Z,11.40
2023-04-12T10:33:03.797Z,11.40
2023-04-12T10:35:52.048Z,11.30
2023-04-12T10:38:19.775Z,11.10
2023-04-12T10:41:11.954Z,10.80
2023-04-12T10:43:40.506Z,10.70
2023-04-12T10:46:07.419Z,10.70
2023-04-12T10:48:37.022Z,10.90
2023-04-12T10:51:28.775Z,10.70
2023-04-12T10:54:08.073Z,10.10
2023-04-12T10:56:39.995Z,9.90
2023-04-12T10:59:08.542Z,9.40
2023-04-12T11:01:38.631Z,9.20
2023-04-12T11:04:25.314Z,9.20
2023-04-12T11:06:59.989Z,9.20
2023-04-12T11:09:33.721Z,9.30
2023-04-12T11:12:08.161Z,9.40
2023-04-12T11:14:52.212Z,9.80
2023-04-12T11:17:22.981Z,10.50
2023-04-12T11:19:54.394Z,11.10
2023-04-12T11:22:23.754Z,11.40
2023-04-12T11:24:55.968Z,11.80
2023-04-12T11:27:25.590Z,11.90
2023-04-12T11:29:58.357Z,12.10
2023-04-12T11:32:31.304Z,12.20
2023-04-12T11:34:59.200Z,12.20
2023-04-12T11:37:27.306Z,12.20
2023-04-12T11:39:57.554Z,12.20
2023-04-12T11:42:26.170Z,12.40
2023-04-12T11:44:59.806Z,12.10
2023-04-12T11:47:28.071Z,12.30
2023-04-12T11:49:59.477Z,12.40
2023-04-12T11:52:32.619Z,12.60
2023-04-12T11:55:06.834Z,12.60
2023-04-12T11:57:35.320Z,12.70
2023-04-12T12:00:06.902Z,12.90
2023-04-12T12:02:41.168Z,12.90
2023-04-12T12:05:13.801Z,13.00
2023-04-12T12:07:41.092Z,13.20
2023-04-12T12:10:16.476Z,13.20
2023-04-12T12:12:51.416Z,13.30
2023-04-12T12:15:18.478Z,13.00
2023-04-12T12:17:45.789Z,13.30
2023-04-12T12:20:22.382Z,13.50
2023-04-12T12:22:49.735Z,13.10
2023-04-12T12:25:20.808Z,12.60
2023-04-12T12:27:48.702Z,12.00
2023-04-12T12:30:20.938Z,11.90
2023-04-12T12:32:52.820Z,12.00
2023-04-12T12:35:19.810Z,12.30
2023-04-12T12:37:53.256Z,12.80
2023-04-12T12:40:32.323Z,13.00
2023-04-12T12:42:59.549Z,12.80
2023-04-12T12:45:29.367Z,12.60
2023-04-12T12:48:04.003Z,12.50
2023-04-12T12:50:36.382Z,12.40
2023-04-12T12:53:05.897Z,12.30
2023-04-12T12:55:32.841Z,12.10
2023-04-12T13:00:30.213Z,12.00
2023-04-12T13:02:58.657Z,12.30
2023-04-12T13:05:26.156Z,12.40
2023-04-12T13:07:53.148Z,12.40
2023-04-12T13:10:21.363Z,12.10
2023-04-12T13:12:48.358Z,12.10
2023-04-12T13:17:45.408Z,12.70
2023-04-12T13:20:12.537Z,12.90
2023-04-12T13:22:39.468Z,12.90
2023-04-12T13:25:07.237Z,12.80
2023-04-12T13:27:34.268Z,12.50
2023-04-12T13:30:01.237Z,12.40
2023-04-12T13:32:28.247Z,12.70
2023-04-12T13:34:55.263Z,12.50
2023-04-12T13:37:22.321Z,12.70
2023-04-12T13:39:51.689Z,13.00
2023-04-12T13:42:18.718Z,13.20
2023-04-12T13:44:46.249Z,12.90
2023-04-12T13:47:13.455Z,12.70
2023-04-12T13:49:40.838Z,12.40
2023-04-12T13:52:08.253Z,12.40
2023-04-12T13:54:35.916Z,12.60
2023-04-12T13:57:04.115Z,13.00
2023-04-12T13:59:31.238Z,13.40
2023-04-12T14:01:58.418Z,13.40
2023-04-12T14:04:29.194Z,13.30
2023-04-12T14:06:57.133Z,13.30
2023-04-12T14:09:29.873Z,13.10
2023-04-12T14:11:59.243Z,12.80
2023-04-12T14:14:27.473Z,12.80
2023-04-12T14:16:57.744Z,12.70
2023-04-12T14:19:25.465Z,12.60
2023-04-12T14:21:52.768Z,12.60
2023-04-12T14:24:21.019Z,12.70
2023-04-12T14:26:50.143Z,12.70
2023-04-12T14:29:17.478Z,12.80
2023-04-12T14:31:44.542Z,12.80
2023-04-12T14:34:12.932Z,12.90
2023-04-12T14:36:39.928Z,13.00
2023-04-12T14:39:10.116Z,12.80
2023-04-12T14:41:38.208Z,12.80
2023-04-12T14:44:05.680Z,12.60
2023-04-12T14:46:32.813Z,12.40
2023-04-12T14:49:01.470Z,12.60
2023-04-12T14:51:29.686Z,12.60
2023-04-12T14:53:57.393Z,12.50
2023-04-12T14:56:28.953Z,12.60
2023-04-12T14:58:57.277Z,12.70
2023-04-12T15:01:25.806Z,12.70
2023-04-12T15:03:53.812Z,12.50
2023-04-12T15:06:23.780Z,12.50
2023-04-12T15:08:54.225Z,12.30
2023-04-12T15:11:26.521Z,12.10
2023-04-12T15:13:54.983Z,12.10
2023-04-12T15:16:22.768Z,12.10
2023-04-12T15:18:51.702Z,12.10
2023-04-12T15:21:19.049Z,12.20
2023-04-12T15:23:46.068Z,12.30
2023-04-12T15:26:14.196Z,12.10
2023-04-12T15:28:42.394Z,12.20
2023-04-12T15:31:09.626Z,12.30
2023-04-12T15:33:37.934Z,12.50
2023-04-12T15:36:06.295Z,12.60
2023-04-12T15:38:40.836Z,12.60
2023-04-12T15:41:08.354Z,12.50
2023-04-12T15:43:35.396Z,12.30
2023-04-12T15:46:02.688Z,12.30
2023-04-12T15:48:29.936Z,12.40
2023-04-12T15:50:57.260Z,12.30
2023-04-12T15:53:27.203Z,12.10
2023-04-12T15:55:55.118Z,12.10
2023-04-12T15:58:24.196Z,12.10
2023-04-12T16:00:54.165Z,12.10
2023-04-12T16:03:26.411Z,12.00
2023-04-12T16:05:55.068Z,11.90
2023-04-12T16:08:22.795Z,11.90
2023-04-12T16:10:52.891Z,11.90
2023-04-12T16:13:20.600Z,11.80
2023-04-12T16:15:48.247Z,11.70
2023-04-12T16:18:17.397Z,11.60
2023-04-12T16:20:45.267Z,11.50
2023-04-12T16:23:12.951Z,11.50
2023-04-12T16:25:40.322Z,11.50
2023-04-12T16:28:08.100Z,11.50
2023-04-12T16:30:35.301Z,11.60
2023-04-12T16:33:02.705Z,11.60
2023-04-12T16:35:29.798Z,11.60
2023-04-12T16:37:56.816Z,11.60
2023-04-12T16:40:24.529Z,11.60
2023-04-12T16:42:51.768Z,11.60
2023-04-12T16:45:19.656Z,11.60
2023-04-12T16:47:47.467Z,11.60
2023-04-12T16:50:15.439Z,11.60
2023-04-12T16:52:42.544Z,11.60
2023-04-12T16:55:13.681Z,11.60
2023-04-12T16:57:42.863Z,11.50
2023-04-12T17:00:29.511Z,11.50
2023-04-12T17:02:56.653Z,11.50
2023-04-12T17:05:24.678Z,11.40
2023-04-12T17:07:54.136Z,11.30
2023-04-12T17:10:24.390Z,11.40
2023-04-12T17:12:57.562Z,11.40
2023-04-12T17:15:26.497Z,11.50
2023-04-12T17:18:06.655Z,11.50
2023-04-12T17:20:34.364Z,11.50
2023-04-12T17:23:01.472Z,11.50
2023-04-12T17:25:31.493Z,11.40
2023-04-12T17:28:00.929Z,11.20
2023-04-12T17:30:28.681Z,11.10
2023-04-12T17:32:56.480Z,11.00
2023-04-12T17:35:23.503Z,10.90
2023-04-12T17:37:51.396Z,10.90
2023-04-12T17:40:18.750Z,10.80
2023-04-12T17:42:45.842Z,10.70
2023-04-12T17:45:14.474Z,10.70
2023-04-12T17:47:43.038Z,10.60
2023-04-12T17:50:11.698Z,10.60
2023-04-12T17:52:39.036Z,10.50
2023-04-12T17:55:09.257Z,10.50
2023-04-12T17:57:36.560Z,10.50
2023-04-12T18:00:07.274Z,10.60
2023-04-12T18:02:34.428Z,10.50
2023-04-12T18:05:01.573Z,10.40
2023-04-12T18:07:30.209Z,10.40
2023-04-12T18:09:57.171Z,10.40
2023-04-12T18:12:24.129Z,10.40
2023-04-12T18:14:51.100Z,10.30
2023-04-12T18:17:18.066Z,10.30
2023-04-12T18:19:45.174Z,10.20
2023-04-12T18:22:12.385Z,10.20
2023-04-12T18:24:39.508Z,10.10
2023-04-12T18:27:07.115Z,10.10
2023-04-12T18:29:34.521Z,10.00
2023-04-12T18:32:01.594Z,10.00
2023-04-12T18:34:28.581Z,9.90
2023-04-12T18:36:55.809Z,9.80
2023-04-12T18:39:23.424Z,9.80
2023-04-12T18:41:51.188Z,9.80
2023-04-12T18:44:19.897Z,9.80
2023-04-12T18:46:46.973Z,9.70
2023-04-12T18:49:14.477Z,9.70
2023-04-12T18:51:43.275Z,9.60
2023-04-12T18:54:13.757Z,9.50
2023-04-12T18:56:43.874Z,9.40
2023-04-12T18:59:17.393Z,9.40
2023-04-12T19:01:45.930Z,9.40
2023-04-12T19:04:13.057Z,9.40
2023-04-12T19:06:40.023Z,9.50
2023-04-12T19:09:08.277Z,9.50
2023-04-12T19:11:37.047Z,9.50
2023-04-12T19:14:04.539Z,9.60
2023-04-12T19:16:32.227Z,9.50
2023-04-12T19:19:00.252Z,9.50
2023-04-12T19:21:29.475Z,9.50
2023-04-12T19:23:57.101Z,9.50
2023-04-12T19:26:24.236Z,9.60
2023-04-12T19:28:55.365Z,9.60
2023-04-12T19:31:23.863Z,9.60
2023-04-12T19:33:50.983Z,9.70
2023-04-12T19:36:17.907Z,9.70
2023-04-12T19:38:47.841Z,9.80
2023-04-12T19:41:17.908Z,9.80
2023-04-12T19:43:44.973Z,9.90
2023-04-12T19:46:12.015Z,9.90
2023-04-12T19:48:39.015Z,9.90
2023-04-12T19:51:06.243Z,9.90
2023-04-12T19:53:34.083Z,9.90
2023-04-12T19:56:03.966Z,9.90
2023-04-12T19:58:32.016Z,9.90
2023-04-12T20:01:02.948Z,9.80
2023-04-12T20:03:30.345Z,9.80
2023-04-12T20:06:03.871Z,9.80
2023-04-12T20:08:31.250Z,9.60
2023-04-12T20:10:58.212Z,9.40
2023-04-12T20:13:25.416Z,8.90
2023-04-12T20:15:52.672Z,8.60
2023-04-12T20:18:19.586Z,8.40
2023-04-12T20:20:47.411Z,8.30
2023-04-12T20:23:14.609Z,8.20
2023-04-12T20:25:42.651Z,8.10
2023-04-12T20:28:10.069Z,8.00
2023-04-12T20:30:37.301Z,8.00
2023-04-12T20:33:04.770Z,8.00
2023-04-12T20:35:32.142Z,8.00
2023-04-12T20:38:00.048Z,7.90
2023-04-12T20:40:29.857Z,7.90
2023-04-12T20:42:57.260Z,7.90
2023-04-12T20:45:24.487Z,7.90
2023-04-12T20:47:51.974Z,7.80
2023-04-12T20:50:22.464Z,7.80
2023-04-12T20:52:51.855Z,7.90
2023-04-12T20:55:19.146Z,7.90
2023-04-12T20:57:46.333Z,7.90
2023-04-12T21:00:23.556Z,7.90
2023-04-12T21:02:51.082Z,8.00
2023-04-12T21:05:18.123Z,8.10
2023-04-12T21:07:46.950Z,8.10
2023-04-12T21:10:14.814Z,8.20
2023-04-12T21:12:45.012Z,8.30
2023-04-12T21:15:12.748Z,8.30
2023-04-12T21:17:40.859Z,8.30
2023-04-12T21:20:15.459Z,8.40
2023-04-12T21:22:44.084Z,8.40
2023-04-12T21:25:15.087Z,8.40
2023-04-12T21:27:45.119Z,8.30
2023-04-12T21:30:12.920Z,8.30
2023-04-12T21:32:41.235Z,8.10
2023-04-12T21:35:08.950Z,8.00
2023-04-12T21:37:36.858Z,7.90
2023-04-12T21:40:10.323Z,7.90
2023-04-12T21:42:38.546Z,7.90
2023-04-12T21:45:08.592Z,7.80
2023-04-12T21:47:36.092Z,7.70
2023-04-12T21:50:03.097Z,7.60
2023-04-12T21:52:30.108Z,7.50
2023-04-12T21:54:57.061Z,7.40
2023-04-12T21:57:23.989Z,7.50
2023-04-12T21:59:51.036Z,7.40
2023-04-12T22:02:18.141Z,7.50
2023-04-12T22:04:45.157Z,7.50
2023-04-12T22:07:13.113Z,7.50
2023-04-12T22:09:41.653Z,7.50
2023-04-12T22:12:09.757Z,7.50
2023-04-12T22:14:37.101Z,7.40
2023-04-12T22:17:06.060Z,7.40
2023-04-12T22:19:33.090Z,7.40
2023-04-12T22:21:59.987Z,7.40
2023-04-12T22:24:27.194Z,7.40
2023-04-12T22:26:57.441Z,7.40
2023-04-12T22:29:25.345Z,7.40
2023-04-12T22:31:52.940Z,7.40
2023-04-12T22:34:19.944Z,7.40
2023-04-12T22:36:51.744Z,7.40
2023-04-12T22:39:21.662Z,7.40
2023-04-12T22:41:53.237Z,7.40
2023-04-12T22:44:22.203Z,7.40
2023-04-12T22:46:50.260Z,7.40
2023-04-12T22:49:18.410Z,7.40
2023-04-12T22:51:46.462Z,7.40
2023-04-12T22:54:13.502Z,7.30
2023-04-12T22:56:45.468Z,7.40
2023-04-12T22:59:19.028Z,7.40
2023-04-12T23:01:47.163Z,7.40
2023-04-12T23:04:15.891Z,7.40
2023-04-12T23:06:44.260Z,7.40
2023-04-12T23:09:12.605Z,7.30
2023-04-12T23:11:41.735Z,7.40
2023-04-12T23:14:09.798Z,7.30
2023-04-12T23:16:44.394Z,7.30
2023-04-12T23:19:14.923Z,7.30
2023-04-12T23:21:43.004Z,7.30
2023-04-12T23:24:15.682Z,7.30
2023-04-12T23:26:45.154Z,7.30
2023-04-12T23:29:12.686Z,7.30
2023-04-12T23:31:41.474Z,7.30
2023-04-12T23:34:08.428Z,7.30
2023-04-12T23:36:36.307Z,7.30
2023-04-12T23:39:07.553Z,7.30
2023-04-12T23:41:34.504Z,7.30
2023-04-12T23:44:01.891Z,7.30
2023-04-12T23:46:29.196Z,7.30
2023-04-12T23:48:56.285Z,7.40
2023-04-12T23:51:23.384Z,7.40
2023-04-12T23:53:50.496Z,7.40
2023-04-12T23:56:18.709Z,7.40
2023-04-12T23:58:45.659Z,7.50
